sensor_id;sensor_type;location;lat;lon;timestamp;pressure;altitude;pressure_sealevel;temperature;humidity
5883;BME280;2967;51.488;6.618;2023-02-15T00:03:11;102642.25;;;6.73;100.00
5883;BME280;2967;51.488;6.618;2023-02-15T00:08:15;102637.44;;;6.51;100.00
5883;BME280;2967;51.488;6.618;2023-02-15T00:13:18;102637.59;;;6.43;100.00
5883;BME280;2967;51.488;6.618;2023-02-15T00:18:20;102636.69;;;6.44;100.00
5883;BME280;2967;51.488;6.618;2023-02-15T00:23:26;102645.63;;;6.34;100.00
5883;BME280;2967;51.488;6.618;2023-02-15T00:28:29;102637.22;;;6.17;100.00
5883;BME280;2967;51.488;6.618;2023-02-15T00:33:33;102626.88;;;6.07;100.00
5883;BME280;2967;51.488;6.618;2023-02-15T00:38:39;102571.91;;;5.96;100.00
5883;BME280;2967;51.488;6.618;2023-02-15T00:43:42;102624.25;;;6.05;100.00
5883;BME280;2967;51.488;6.618;2023-02-15T00:48:44;102624.31;;;6.04;100.00
5883;BME280;2967;51.488;6.618;2023-02-15T00:53:48;102624.69;;;5.80;100.00
5883;BME280;2967;51.488;6.618;2023-02-15T00:58:51;102632.72;;;5.68;100.00
5883;BME280;2967;51.488;6.618;2023-02-15T01:03:54;102624.28;;;5.48;100.00
5883;BME280;2967;51.488;6.618;2023-02-15T01:08:58;102634.13;;;5.32;100.00
5883;BME280;2967;51.488;6.618;2023-02-15T01:14:00;102617.38;;;5.42;100.00
5883;BME280;2967;51.488;6.618;2023-02-15T01:19:04;102621.59;;;5.52;100.00
5883;BME280;2967;51.488;6.618;2023-02-15T01:24:12;102618.38;;;5.34;100.00
5883;BME280;2967;51.488;6.618;2023-02-15T01:29:15;102621.03;;;5.32;100.00
5883;BME280;2967;51.488;6.618;2023-02-15T01:34:17;102612.94;;;5.47;100.00
5883;BME280;2967;51.488;6.618;2023-02-15T01:39:21;102604.31;;;5.39;100.00
5883;BME280;2967;51.488;6.618;2023-02-15T01:44:47;102608.91;;;5.24;100.00
5883;BME280;2967;51.488;6.618;2023-02-15T01:49:58;102598.66;;;5.06;100.00
5883;BME280;2967;51.488;6.618;2023-02-15T01:55:04;102588.75;;;5.27;100.00
5883;BME280;2967;51.488;6.618;2023-02-15T02:05:40;102576.56;;;5.23;100.00
5883;BME280;2967;51.488;6.618;2023-02-15T02:10:47;102575.78;;;5.17;100.00
5883;BME280;2967;51.488;6.618;2023-02-15T02:15:57;102565.53;;;5.01;100.00
5883;BME280;2967;51.488;6.618;2023-02-15T02:21:17;102566.41;;;5.00;100.00
5883;BME280;2967;51.488;6.618;2023-02-15T02:26:49;102555.16;;;4.90;100.00
5883;BME280;2967;51.488;6.618;2023-02-15T02:32:12;102554.31;;;4.90;100.00
5883;BME280;2967;51.488;6.618;2023-02-15T02:37:24;102545.06;;;5.23;100.00
5883;BME280;2967;51.488;6.618;2023-02-15T02:42:35;102484.91;;;5.13;100.00
5883;BME280;2967;51.488;6.618;2023-02-15T02:47:41;102533.75;;;5.21;100.00
5883;BME280;2967;51.488;6.618;2023-02-15T02:52:49;102534.91;;;5.03;100.00
5883;BME280;2967;51.488;6.618;2023-02-15T02:57:54;102524.59;;;4.91;100.00
5883;BME280;2967;51.488;6.618;2023-02-15T03:03:00;102513.16;;;4.95;100.00
5883;BME280;2967;51.488;6.618;2023-02-15T03:08:08;102522.97;;;4.81;100.00
5883;BME280;2967;51.488;6.618;2023-02-15T03:13:12;102512.44;;;4.85;100.00
5883;BME280;2967;51.488;6.618;2023-02-15T03:18:17;102515.19;;;4.76;100.00
5883;BME280;2967;51.488;6.618;2023-02-15T03:23:23;102520.44;;;4.75;100.00
5883;BME280;2967;51.488;6.618;2023-02-15T03:28:30;102510.50;;;4.98;100.00
5883;BME280;2967;51.488;6.618;2023-02-15T03:33:39;102517.59;;;4.91;100.00
5883;BME280;2967;51.488;6.618;2023-02-15T03:38:49;102507.19;;;4.87;100.00
5883;BME280;2967;51.488;6.618;2023-02-15T03:43:57;102509.88;;;4.79;100.00
5883;BME280;2967;51.488;6.618;2023-02-15T03:49:04;102500.41;;;4.71;100.00
5883;BME280;2967;51.488;6.618;2023-02-15T03:54:14;102492.78;;;4.54;100.00
5883;BME280;2967;51.488;6.618;2023-02-15T03:59:38;102505.22;;;4.36;100.00
5883;BME280;2967;51.488;6.618;2023-02-15T04:04:58;102503.53;;;4.30;100.00
5883;BME280;2967;51.488;6.618;2023-02-15T04:10:03;102503.53;;;4.30;100.00
5883;BME280;2967;51.488;6.618;2023-02-15T04:15:23;102495.00;;;4.15;100.00
5883;BME280;2967;51.488;6.618;2023-02-15T04:20:43;102492.38;;;4.18;100.00
5883;BME280;2967;51.488;6.618;2023-02-15T04:26:05;102496.56;;;4.32;100.00
5883;BME280;2967;51.488;6.618;2023-02-15T04:31:08;102493.94;;;4.31;100.00
5883;BME280;2967;51.488;6.618;2023-02-15T04:36:10;102491.47;;;4.17;100.00
5883;BME280;2967;51.488;6.618;2023-02-15T04:41:14;102486.34;;;4.11;100.00
5883;BME280;2967;51.488;6.618;2023-02-15T04:46:17;102483.63;;;4.19;100.00
5883;BME280;2967;51.488;6.618;2023-02-15T04:51:20;102486.03;;;4.35;100.00
5883;BME280;2967;51.488;6.618;2023-02-15T04:56:24;102480.63;;;4.46;100.00
5883;BME280;2967;51.488;6.618;2023-02-15T05:01:27;102476.28;;;4.46;100.00
5883;BME280;2967;51.488;6.618;2023-02-15T05:06:30;102468.13;;;4.67;100.00
5883;BME280;2967;51.488;6.618;2023-02-15T05:11:33;102462.88;;;4.69;100.00
5883;BME280;2967;51.488;6.618;2023-02-15T05:16:36;102449.97;;;4.54;100.00
5883;BME280;2967;51.488;6.618;2023-02-15T05:21:39;102456.81;;;4.64;100.00
5883;BME280;2967;51.488;6.618;2023-02-15T05:26:43;102456.81;;;4.64;100.00
5883;BME280;2967;51.488;6.618;2023-02-15T05:32:08;102460.06;;;4.81;100.00
5883;BME280;2967;51.488;6.618;2023-02-15T05:37:11;102452.06;;;4.90;100.00
5883;BME280;2967;51.488;6.618;2023-02-15T05:42:15;102443.50;;;4.77;100.00
5883;BME280;2967;51.488;6.618;2023-02-15T05:47:18;102448.75;;;4.76;100.00
5883;BME280;2967;51.488;6.618;2023-02-15T05:52:21;102453.88;;;4.86;100.00
5883;BME280;2967;51.488;6.618;2023-02-15T05:57:25;102455.66;;;4.84;100.00
5883;BME280;2967;51.488;6.618;2023-02-15T06:02:27;102432.13;;;4.80;100.00
5883;BME280;2967;51.488;6.618;2023-02-15T06:07:30;102442.66;;;4.77;100.00
5883;BME280;2967;51.488;6.618;2023-02-15T06:12:34;102453.22;;;4.72;100.00
5883;BME280;2967;51.488;6.618;2023-02-15T06:17:37;102451.25;;;4.85;100.00
5883;BME280;2967;51.488;6.618;2023-02-15T06:22:39;102449.59;;;4.81;100.00
5883;BME280;2967;51.488;6.618;2023-02-15T06:27:43;102460.00;;;4.87;100.00
5883;BME280;2967;51.488;6.618;2023-02-15T06:32:46;102458.28;;;4.83;100.00
5883;BME280;2967;51.488;6.618;2023-02-15T06:37:48;102470.56;;;4.81;100.00
5883;BME280;2967;51.488;6.618;2023-02-15T06:42:52;102468.81;;;4.80;100.00
5883;BME280;2967;51.488;6.618;2023-02-15T06:47:55;102477.66;;;4.73;100.00
5883;BME280;2967;51.488;6.618;2023-02-15T06:52:58;102482.84;;;4.76;100.00
5883;BME280;2967;51.488;6.618;2023-02-15T06:58:02;102471.19;;;4.95;100.00
5883;BME280;2967;51.488;6.618;2023-02-15T07:03:05;102474.00;;;4.83;100.00
5883;BME280;2967;51.488;6.618;2023-02-15T07:08:08;102468.63;;;4.93;100.00
5883;BME280;2967;51.488;6.618;2023-02-15T07:13:12;102452.84;;;4.95;100.00
5883;BME280;2967;51.488;6.618;2023-02-15T07:18:14;102452.84;;;4.95;100.00
5883;BME280;2967;51.488;6.618;2023-02-15T07:23:17;102450.97;;;5.03;100.00
5883;BME280;2967;51.488;6.618;2023-02-15T07:28:21;102438.13;;;4.86;100.00
5883;BME280;2967;51.488;6.618;2023-02-15T07:33:23;102433.78;;;4.87;100.00
5883;BME280;2967;51.488;6.618;2023-02-15T07:38:30;102426.66;;;4.93;100.00
5883;BME280;2967;51.488;6.618;2023-02-15T07:43:36;102422.13;;;5.04;100.00
5883;BME280;2967;51.488;6.618;2023-02-15T07:48:40;102424.47;;;5.19;100.00
5883;BME280;2967;51.488;6.618;2023-02-15T07:53:43;102411.34;;;5.20;100.00
5883;BME280;2967;51.488;6.618;2023-02-15T07:58:47;102409.75;;;5.60;100.00
5883;BME280;2967;51.488;6.618;2023-02-15T08:03:57;102399.41;;;5.51;100.00
5883;BME280;2967;51.488;6.618;2023-02-15T08:09:03;102402.69;;;5.62;100.00
5883;BME280;2967;51.488;6.618;2023-02-15T08:14:09;102398.31;;;5.63;100.00
5883;BME280;2967;51.488;6.618;2023-02-15T08:19:14;102354.16;;;5.39;100.00
5883;BME280;2967;51.488;6.618;2023-02-15T08:24:19;102393.66;;;5.77;100.00
5883;BME280;2967;51.488;6.618;2023-02-15T08:29:24;102387.47;;;5.81;100.00
5883;BME280;2967;51.488;6.618;2023-02-15T08:34:29;102381.94;;;5.94;100.00
5883;BME280;2967;51.488;6.618;2023-02-15T08:39:32;102375.03;;;5.92;100.00
5883;BME280;2967;51.488;6.618;2023-02-15T08:44:36;102382.53;;;6.08;100.00
5883;BME280;2967;51.488;6.618;2023-02-15T08:49:39;102375.56;;;6.07;100.00
5883;BME280;2967;51.488;6.618;2023-02-15T08:54:41;102374.28;;;6.25;100.00
5883;BME280;2967;51.488;6.618;2023-02-15T08:59:46;102375.81;;;6.36;100.00
5883;BME280;2967;51.488;6.618;2023-02-15T09:04:48;102380.19;;;6.36;100.00
5883;BME280;2967;51.488;6.618;2023-02-15T09:09:53;102376.47;;;6.44;100.00
5883;BME280;2967;51.488;6.618;2023-02-15T09:14:57;102363.94;;;6.55;100.00
5883;BME280;2967;51.488;6.618;2023-02-15T09:20:00;102370.78;;;6.64;100.00
5883;BME280;2967;51.488;6.618;2023-02-15T09:25:03;102375.75;;;6.74;100.00
5883;BME280;2967;51.488;6.618;2023-02-15T09:30:08;102368.63;;;6.79;100.00
5883;BME280;2967;51.488;6.618;2023-02-15T09:35:11;102372.78;;;6.88;100.00
5883;BME280;2967;51.488;6.618;2023-02-15T09:40:15;102375.09;;;7.01;100.00
5883;BME280;2967;51.488;6.618;2023-02-15T09:45:29;102354.66;;;7.11;100.00
5883;BME280;2967;51.488;6.618;2023-02-15T09:50:38;102368.94;;;7.34;100.00
5883;BME280;2967;51.488;6.618;2023-02-15T09:55:53;102363.41;;;7.45;100.00
5883;BME280;2967;51.488;6.618;2023-02-15T10:01:04;102367.34;;;7.61;100.00
5883;BME280;2967;51.488;6.618;2023-02-15T10:06:22;102373.13;;;7.73;100.00
5883;BME280;2967;51.488;6.618;2023-02-15T10:11:32;102372.72;;;7.88;100.00
5883;BME280;2967;51.488;6.618;2023-02-15T10:16:52;102350.00;;;7.84;100.00
5883;BME280;2967;51.488;6.618;2023-02-15T10:22:04;102362.34;;;8.12;100.00
5883;BME280;2967;51.488;6.618;2023-02-15T10:27:12;102372.47;;;8.26;100.00
5883;BME280;2967;51.488;6.618;2023-02-15T10:32:22;102374.13;;;8.30;100.00
5883;BME280;2967;51.488;6.618;2023-02-15T10:37:45;102364.28;;;8.35;100.00
5883;BME280;2967;51.488;6.618;2023-02-15T10:43:01;102358.84;;;8.41;100.00
5883;BME280;2967;51.488;6.618;2023-02-15T10:48:51;102354.38;;;8.43;100.00
5883;BME280;2967;51.488;6.618;2023-02-15T10:54:08;102350.44;;;8.56;100.00
5883;BME280;2967;51.488;6.618;2023-02-15T10:59:31;102340.47;;;8.65;100.00
5883;BME280;2967;51.488;6.618;2023-02-15T11:04:45;102342.84;;;8.73;100.00
5883;BME280;2967;51.488;6.618;2023-02-15T11:09:52;102338.22;;;8.79;100.00
5883;BME280;2967;51.488;6.618;2023-02-15T11:15:00;102343.00;;;8.94;100.00
5883;BME280;2967;51.488;6.618;2023-02-15T11:20:16;102329.50;;;9.03;99.97
5883;BME280;2967;51.488;6.618;2023-02-15T11:25:24;102335.88;;;9.22;100.00
5883;BME280;2967;51.488;6.618;2023-02-15T11:30:36;102338.84;;;9.62;100.00
5883;BME280;2967;51.488;6.618;2023-02-15T11:35:48;102341.31;;;9.90;100.00
5883;BME280;2967;51.488;6.618;2023-02-15T11:40:54;102323.25;;;10.02;99.24
5883;BME280;2967;51.488;6.618;2023-02-15T11:45:58;102311.50;;;10.09;98.16
5883;BME280;2967;51.488;6.618;2023-02-15T11:51:03;102310.31;;;10.18;98.11
5883;BME280;2967;51.488;6.618;2023-02-15T11:56:13;102297.53;;;10.29;96.91
5883;BME280;2967;51.488;6.618;2023-02-15T12:01:20;102284.88;;;10.56;96.78
5883;BME280;2967;51.488;6.618;2023-02-15T12:06:29;102282.19;;;10.99;97.04
5883;BME280;2967;51.488;6.618;2023-02-15T12:11:35;102272.44;;;11.00;93.32
5883;BME280;2967;51.488;6.618;2023-02-15T12:16:44;102266.94;;;11.24;93.71
5883;BME280;2967;51.488;6.618;2023-02-15T12:21:51;102269.16;;;11.53;94.48
5883;BME280;2967;51.488;6.618;2023-02-15T12:27:00;102272.00;;;11.69;90.34
5883;BME280;2967;51.488;6.618;2023-02-15T12:32:03;102263.78;;;11.93;92.38
5883;BME280;2967;51.488;6.618;2023-02-15T12:37:16;102258.81;;;12.23;91.79
5883;BME280;2967;51.488;6.618;2023-02-15T12:42:20;102256.28;;;12.38;88.38
5883;BME280;2967;51.488;6.618;2023-02-15T12:47:23;102257.34;;;12.34;88.06
5883;BME280;2967;51.488;6.618;2023-02-15T12:52:32;102201.06;;;12.28;88.46
5883;BME280;2967;51.488;6.618;2023-02-15T12:57:34;102234.69;;;12.63;87.60
5883;BME280;2967;51.488;6.618;2023-02-15T13:02:41;102238.66;;;12.71;86.67
5883;BME280;2967;51.488;6.618;2023-02-15T13:07:50;102222.91;;;12.68;88.28
5883;BME280;2967;51.488;6.618;2023-02-15T13:12:54;102218.13;;;12.75;87.27
5883;BME280;2967;51.488;6.618;2023-02-15T13:17:59;102204.38;;;12.67;86.24
5883;BME280;2967;51.488;6.618;2023-02-15T13:23:08;102196.47;;;12.65;84.23
5883;BME280;2967;51.488;6.618;2023-02-15T13:28:17;102200.50;;;12.74;85.38
5883;BME280;2967;51.488;6.618;2023-02-15T13:33:26;102180.63;;;12.81;86.00
5883;BME280;2967;51.488;6.618;2023-02-15T13:38:59;102189.13;;;13.21;83.40
5883;BME280;2967;51.488;6.618;2023-02-15T13:44:14;102183.41;;;13.44;82.78
5883;BME280;2967;51.488;6.618;2023-02-15T13:49:37;102185.66;;;13.67;81.76
5883;BME280;2967;51.488;6.618;2023-02-15T13:55:00;102170.13;;;13.90;81.41
5883;BME280;2967;51.488;6.618;2023-02-15T14:00:16;102167.63;;;14.03;78.64
5883;BME280;2967;51.488;6.618;2023-02-15T14:05:38;102173.06;;;14.17;78.13
5883;BME280;2967;51.488;6.618;2023-02-15T14:10:56;102186.88;;;14.23;79.29
5883;BME280;2967;51.488;6.618;2023-02-15T14:16:04;102178.97;;;14.06;78.80
5883;BME280;2967;51.488;6.618;2023-02-15T14:21:15;102159.34;;;13.78;79.27
5883;BME280;2967;51.488;6.618;2023-02-15T14:26:31;102157.19;;;13.69;79.33
5883;BME280;2967;51.488;6.618;2023-02-15T14:31:41;102152.53;;;13.57;80.58
5883;BME280;2967;51.488;6.618;2023-02-15T14:36:45;102142.78;;;13.57;82.13
5883;BME280;2967;51.488;6.618;2023-02-15T14:41:53;102144.75;;;13.54;81.72
5883;BME280;2967;51.488;6.618;2023-02-15T14:47:04;102142.44;;;13.48;81.29
5883;BME280;2967;51.488;6.618;2023-02-15T14:52:10;102150.28;;;13.34;81.69
5883;BME280;2967;51.488;6.618;2023-02-15T14:57:26;102142.50;;;13.31;81.74
5883;BME280;2967;51.488;6.618;2023-02-15T15:02:40;102132.53;;;13.19;82.27
5883;BME280;2967;51.488;6.618;2023-02-15T15:07:46;102135.44;;;13.15;82.78
5883;BME280;2967;51.488;6.618;2023-02-15T15:12:52;102137.22;;;13.14;82.13
5883;BME280;2967;51.488;6.618;2023-02-15T15:17:59;102132.34;;;13.07;81.38
5883;BME280;2967;51.488;6.618;2023-02-15T15:23:40;102134.31;;;13.03;82.29
5883;BME280;2967;51.488;6.618;2023-02-15T15:28:57;102116.03;;;12.80;81.86
5883;BME280;2967;51.488;6.618;2023-02-15T15:34:17;102145.25;;;12.97;83.03
5883;BME280;2967;51.488;6.618;2023-02-15T15:39:38;102144.69;;;12.91;82.99
5883;BME280;2967;51.488;6.618;2023-02-15T15:45:19;102149.47;;;12.84;83.84
5883;BME280;2967;51.488;6.618;2023-02-15T15:50:25;102140.25;;;12.74;84.91
5883;BME280;2967;51.488;6.618;2023-02-15T15:55:30;102040.41;;;12.05;85.06
5883;BME280;2967;51.488;6.618;2023-02-15T16:00:37;102141.13;;;12.58;85.78
5883;BME280;2967;51.488;6.618;2023-02-15T16:05:42;102144.31;;;12.47;86.32
5883;BME280;2967;51.488;6.618;2023-02-15T16:10:45;102138.72;;;12.36;87.12
5883;BME280;2967;51.488;6.618;2023-02-15T16:15:50;102147.13;;;12.27;88.12
5883;BME280;2967;51.488;6.618;2023-02-15T16:20:55;102142.31;;;12.18;88.28
5883;BME280;2967;51.488;6.618;2023-02-15T16:26:05;102145.63;;;12.05;89.70
5883;BME280;2967;51.488;6.618;2023-02-15T16:31:14;102140.22;;;11.89;91.27
5883;BME280;2967;51.488;6.618;2023-02-15T16:36:21;102141.50;;;11.81;91.54
5883;BME280;2967;51.488;6.618;2023-02-15T16:41:25;102067.91;;;11.32;92.65
5883;BME280;2967;51.488;6.618;2023-02-15T16:46:32;102126.59;;;11.61;93.00
5883;BME280;2967;51.488;6.618;2023-02-15T16:51:36;102122.47;;;11.54;93.45
5883;BME280;2967;51.488;6.618;2023-02-15T16:56:39;102136.09;;;11.47;94.54
5883;BME280;2967;51.488;6.618;2023-02-15T17:01:47;102136.44;;;11.39;94.61
5883;BME280;2967;51.488;6.618;2023-02-15T17:06:58;102117.03;;;11.20;95.90
5883;BME280;2967;51.488;6.618;2023-02-15T17:12:01;102140.66;;;11.25;95.96
5883;BME280;2967;51.488;6.618;2023-02-15T17:17:08;102136.38;;;11.22;96.09
5883;BME280;2967;51.488;6.618;2023-02-15T17:22:17;102143.78;;;11.14;96.42
5883;BME280;2967;51.488;6.618;2023-02-15T17:27:24;102142.50;;;11.04;96.68
5883;BME280;2967;51.488;6.618;2023-02-15T17:32:30;102146.94;;;11.04;96.97
5883;BME280;2967;51.488;6.618;2023-02-15T17:37:46;102126.94;;;10.78;97.08
5883;BME280;2967;51.488;6.618;2023-02-15T17:42:48;102154.72;;;10.88;97.25
5883;BME280;2967;51.488;6.618;2023-02-15T17:47:52;102163.44;;;10.90;96.75
5883;BME280;2967;51.488;6.618;2023-02-15T17:52:56;102164.50;;;10.86;97.69
5883;BME280;2967;51.488;6.618;2023-02-15T17:58:00;102161.97;;;10.83;98.79
5883;BME280;2967;51.488;6.618;2023-02-15T18:03:07;102158.56;;;10.81;97.47
5883;BME280;2967;51.488;6.618;2023-02-15T18:08:27;102169.28;;;10.78;97.26
5883;BME280;2967;51.488;6.618;2023-02-15T18:13:49;102164.09;;;10.75;97.89
5883;BME280;2967;51.488;6.618;2023-02-15T18:18:52;102159.41;;;10.62;98.14
5883;BME280;2967;51.488;6.618;2023-02-15T18:23:55;102158.41;;;10.64;98.66
5883;BME280;2967;51.488;6.618;2023-02-15T18:28:58;102169.16;;;10.61;98.95
5883;BME280;2967;51.488;6.618;2023-02-15T18:34:02;102151.56;;;10.60;98.70
5883;BME280;2967;51.488;6.618;2023-02-15T18:39:22;102163.25;;;10.55;99.01
5883;BME280;2967;51.488;6.618;2023-02-15T18:44:26;102161.84;;;10.46;99.73
5883;BME280;2967;51.488;6.618;2023-02-15T18:49:30;102167.28;;;10.43;99.82
5883;BME280;2967;51.488;6.618;2023-02-15T18:54:34;102166.63;;;10.39;100.00
5883;BME280;2967;51.488;6.618;2023-02-15T18:59:37;102165.19;;;10.30;100.00
5883;BME280;2967;51.488;6.618;2023-02-15T19:04:42;102182.50;;;10.39;100.00
5883;BME280;2967;51.488;6.618;2023-02-15T19:09:47;102159.44;;;10.21;100.00
5883;BME280;2967;51.488;6.618;2023-02-15T19:14:51;102174.16;;;10.28;100.00
5883;BME280;2967;51.488;6.618;2023-02-15T19:19:55;102185.09;;;10.19;100.00
5883;BME280;2967;51.488;6.618;2023-02-15T19:25:00;102189.88;;;10.09;100.00
5883;BME280;2967;51.488;6.618;2023-02-15T19:30:09;102172.72;;;9.98;100.00
5883;BME280;2967;51.488;6.618;2023-02-15T19:35:17;102172.78;;;9.96;100.00
5883;BME280;2967;51.488;6.618;2023-02-15T19:40:24;102172.09;;;9.91;100.00
5883;BME280;2967;51.488;6.618;2023-02-15T19:45:29;102173.75;;;9.94;100.00
5883;BME280;2967;51.488;6.618;2023-02-15T19:50:33;102174.84;;;9.88;100.00
5883;BME280;2967;51.488;6.618;2023-02-15T19:55:35;102166.56;;;9.76;100.00
5883;BME280;2967;51.488;6.618;2023-02-15T20:00:38;102190.09;;;9.82;100.00
5883;BME280;2967;51.488;6.618;2023-02-15T20:05:43;102193.81;;;9.78;100.00
5883;BME280;2967;51.488;6.618;2023-02-15T20:10:46;102183.28;;;9.76;100.00
5883;BME280;2967;51.488;6.618;2023-02-15T20:15:49;102188.75;;;9.72;100.00
5883;BME280;2967;51.488;6.618;2023-02-15T20:20:54;102201.50;;;9.61;100.00
5883;BME280;2967;51.488;6.618;2023-02-15T20:25:58;102197.16;;;9.60;100.00
5883;BME280;2967;51.488;6.618;2023-02-15T20:31:01;102170.84;;;9.34;100.00
5883;BME280;2967;51.488;6.618;2023-02-15T20:36:06;102200.44;;;9.43;100.00
5883;BME280;2967;51.488;6.618;2023-02-15T20:41:13;102205.06;;;9.37;100.00
5883;BME280;2967;51.488;6.618;2023-02-15T20:46:35;102213.31;;;9.52;100.00
5883;BME280;2967;51.488;6.618;2023-02-15T20:51:39;102208.41;;;9.42;100.00
5883;BME280;2967;51.488;6.618;2023-02-15T20:56:42;102209.84;;;9.27;100.00
5883;BME280;2967;51.488;6.618;2023-02-15T21:01:45;102206.44;;;9.24;100.00
5883;BME280;2967;51.488;6.618;2023-02-15T21:06:49;102217.28;;;9.16;100.00
5883;BME280;2967;51.488;6.618;2023-02-15T21:11:54;102220.84;;;9.15;100.00
5883;BME280;2967;51.488;6.618;2023-02-15T21:16:57;102214.06;;;9.08;100.00
5883;BME280;2967;51.488;6.618;2023-02-15T21:22:01;102196.06;;;8.95;100.00
5883;BME280;2967;51.488;6.618;2023-02-15T21:27:05;102211.75;;;8.99;100.00
5883;BME280;2967;51.488;6.618;2023-02-15T21:32:11;102205.78;;;8.94;100.00
5883;BME280;2967;51.488;6.618;2023-02-15T21:37:26;102204.31;;;8.86;100.00
5883;BME280;2967;51.488;6.618;2023-02-15T21:42:31;102207.72;;;8.89;100.00
5883;BME280;2967;51.488;6.618;2023-02-15T21:47:52;102207.72;;;8.89;100.00
5883;BME280;2967;51.488;6.618;2023-02-15T21:52:56;102181.13;;;8.71;100.00
5883;BME280;2967;51.488;6.618;2023-02-15T21:58:00;102196.06;;;8.70;100.00
5883;BME280;2967;51.488;6.618;2023-02-15T22:03:04;102195.22;;;8.70;100.00
5883;BME280;2967;51.488;6.618;2023-02-15T22:08:10;102201.63;;;8.63;100.00
5883;BME280;2967;51.488;6.618;2023-02-15T22:13:15;102202.50;;;8.63;100.00
5883;BME280;2967;51.488;6.618;2023-02-15T22:18:21;102202.72;;;8.56;100.00
5883;BME280;2967;51.488;6.618;2023-02-15T22:23:25;102196.66;;;8.54;100.00
5883;BME280;2967;51.488;6.618;2023-02-15T22:28:30;102173.69;;;8.31;100.00
5883;BME280;2967;51.488;6.618;2023-02-15T22:33:34;102187.28;;;8.45;100.00
5883;BME280;2967;51.488;6.618;2023-02-15T22:38:38;102196.97;;;8.45;100.00
5883;BME280;2967;51.488;6.618;2023-02-15T22:43:42;102201.44;;;8.43;100.00
5883;BME280;2967;51.488;6.618;2023-02-15T22:48:45;102198.69;;;8.46;100.00
5883;BME280;2967;51.488;6.618;2023-02-15T22:53:50;102187.75;;;8.32;100.00
5883;BME280;2967;51.488;6.618;2023-02-15T22:58:58;102203.47;;;8.35;100.00
5883;BME280;2967;51.488;6.618;2023-02-15T23:04:02;102199.09;;;8.34;100.00
5883;BME280;2967;51.488;6.618;2023-02-15T23:09:06;102202.50;;;8.37;100.00
5883;BME280;2967;51.488;6.618;2023-02-15T23:14:22;102198.59;;;8.23;100.00
5883;BME280;2967;51.488;6.618;2023-02-15T23:19:25;102186.44;;;8.17;100.00
5883;BME280;2967;51.488;6.618;2023-02-15T23:24:30;102192.66;;;8.15;100.00
5883;BME280;2967;51.488;6.618;2023-02-15T23:29:34;102181.44;;;8.10;100.00
5883;BME280;2967;51.488;6.618;2023-02-15T23:34:37;102188.53;;;8.08;100.00
5883;BME280;2967;51.488;6.618;2023-02-15T23:39:42;102196.50;;;8.05;100.00
5883;BME280;2967;51.488;6.618;2023-02-15T23:45:19;102196.72;;;7.99;100.00
5883;BME280;2967;51.488;6.618;2023-02-15T23:50:24;102180.91;;;7.99;100.00
5883;BME280;2967;51.488;6.618;2023-02-15T23:55:33;102175.16;;;7.86;100.00
